KOMA/OMA METAR and TAF weather

Enter ICAO airport designator
Station Type Date Time Source
KOMA METAR 2019/12/07 16:52 UTC NOAA

KOMA 071652Z 17011KT 10SM BKN250 04/M03 A3016 RMK AO2 SLP223 T00391033


Station Type Date Time Source
KOMA Decoded METAR 2019/12/07 16:52 UTC NOAA

OMAHA EPPLEY AIRFIELD, NE, United States (KOMA) 41-18N 095-54W 312M
Dec 07, 2019 - 11:52 AM EST / 2019.12.07 1652 UTC
Wind: from the S (170 degrees) at 13 MPH (11 KT):0
Visibility: 10 mile(s):0
Sky conditions: mostly cloudy
Temperature: 39.0 F (3.9 C)
Dew Point: 26.1 F (-3.3 C)
Relative Humidity: 59%
Pressure (altimeter): 30.16 in. Hg (1021 hPa)
ob: KOMA 071652Z 17011KT 10SM BKN250 04/M03 A3016 RMK AO2 SLP223 T00391033
cycle: 17

Station Type Date Time Source
KOMA TAF 2019/12/07 18:22 UTC NOAA

TAF KOMA 071720Z 0718/0818 18012G20KT P6SM BKN250 WS020/22040KT
FM080000 18012KT P6SM SCT250 WS020/22050KT
FM081000 15007KT P6SM SCT250

Example: see airport list